createdAt,value
2023-03-01T00:01:49.595Z,5.93
2023-03-01T00:07:14.720Z,6.12
2023-03-01T00:12:39.476Z,5.86
2023-03-01T00:18:04.819Z,6.48
2023-03-01T00:23:26.695Z,6.29
2023-03-01T00:28:51.546Z,6.45
2023-03-01T00:34:10.397Z,6.18
2023-03-01T00:39:27.605Z,6.26
2023-03-01T00:44:48.544Z,6.44
2023-03-01T00:50:10.027Z,6.56
2023-03-01T00:55:34.602Z,6.62
2023-03-01T01:00:58.309Z,6.09
2023-03-01T01:06:38.972Z,7.16
2023-03-01T01:12:02.130Z,6.85
2023-03-01T01:17:26.854Z,6.14
2023-03-01T01:22:45.429Z,6.45
2023-03-01T01:28:34.837Z,7.14
2023-03-01T01:33:58.436Z,6.63
2023-03-01T01:39:16.490Z,6.87
2023-03-01T01:44:39.645Z,7.04
2023-03-01T01:49:59.183Z,6.74
2023-03-01T01:55:23.768Z,7.09
2023-03-01T02:00:43.152Z,7.41
2023-03-01T02:06:07.577Z,6.76
2023-03-01T02:11:28.708Z,6.83
2023-03-01T02:16:46.786Z,7.56
2023-03-01T02:22:08.990Z,6.91
2023-03-01T02:27:34.781Z,7.56
2023-03-01T02:32:58.844Z,8.00
2023-03-01T02:38:24.252Z,7.27
2023-03-01T02:43:43.486Z,6.56
2023-03-01T02:49:03.366Z,8.02
2023-03-01T02:54:36.526Z,8.84
2023-03-01T03:00:01.372Z,8.33
2023-03-01T03:05:24.005Z,7.56
2023-03-01T03:10:49.286Z,7.94
2023-03-01T03:16:13.147Z,7.18
2023-03-01T03:21:37.230Z,7.50
2023-03-01T03:26:54.471Z,7.36
2023-03-01T03:32:18.580Z,7.05
2023-03-01T03:37:37.443Z,7.11
2023-03-01T03:43:24.861Z,8.28
2023-03-01T03:49:01.623Z,7.89
2023-03-01T03:54:22.728Z,7.24
2023-03-01T03:59:41.666Z,7.96
2023-03-01T04:05:07.255Z,7.61
2023-03-01T04:10:25.725Z,7.79
2023-03-01T04:15:49.266Z,8.20
2023-03-01T04:21:14.783Z,7.88
2023-03-01T04:26:37.763Z,7.62
2023-03-01T04:32:03.460Z,7.74
2023-03-01T04:37:28.091Z,7.42
2023-03-01T04:42:47.578Z,7.36
2023-03-01T04:48:33.886Z,8.12
2023-03-01T04:53:53.135Z,8.15
2023-03-01T04:59:14.622Z,7.65
2023-03-01T05:04:39.597Z,8.09
2023-03-01T05:10:04.866Z,8.03
2023-03-01T05:15:25.880Z,7.73
2023-03-01T05:20:44.078Z,8.00
2023-03-01T05:26:16.089Z,8.65
2023-03-01T05:31:30.506Z,8.10
2023-03-01T05:36:52.483Z,7.60
2023-03-01T05:42:16.802Z,7.83
2023-03-01T05:47:40.747Z,7.80
2023-03-01T05:53:21.677Z,8.15
2023-03-01T05:58:45.123Z,7.58
2023-03-01T06:04:07.617Z,7.68
2023-03-01T06:09:32.731Z,7.32
2023-03-01T06:15:18.870Z,8.31
2023-03-01T06:20:42.127Z,8.03
2023-03-01T06:26:11.058Z,8.14
2023-03-01T06:31:33.629Z,7.06
2023-03-01T06:37:13.691Z,8.46
2023-03-01T06:42:36.577Z,7.88
2023-03-01T06:47:54.625Z,8.32
2023-03-01T06:53:46.087Z,8.74
2023-03-01T06:59:03.354Z,7.32
2023-03-01T07:04:28.243Z,8.01
2023-03-01T07:09:51.830Z,7.91
2023-03-01T07:15:15.830Z,8.29
2023-03-01T07:20:40.914Z,7.72
2023-03-01T07:26:05.256Z,8.72
2023-03-01T07:31:23.559Z,8.47
2023-03-01T07:36:42.285Z,8.03
2023-03-01T07:42:06.803Z,8.51
2023-03-01T07:47:32.148Z,8.36
2023-03-01T07:52:50.645Z,7.76
2023-03-01T07:58:09.056Z,7.81
2023-03-01T08:03:30.732Z,8.51
2023-03-01T08:08:49.138Z,8.63
2023-03-01T08:14:12.903Z,8.34
2023-03-01T08:19:37.773Z,8.16
2023-03-01T08:25:01.884Z,8.45
2023-03-01T08:30:25.738Z,8.58
2023-03-01T08:35:47.022Z,7.81
2023-03-01T08:41:09.575Z,9.17
2023-03-01T08:46:28.124Z,8.56
2023-03-01T08:51:52.291Z,8.68
2023-03-01T08:57:10.842Z,9.29
2023-03-01T09:02:36.168Z,9.05
2023-03-01T09:08:00.415Z,9.20
2023-03-01T09:13:25.935Z,9.35
2023-03-01T09:18:51.185Z,9.55
2023-03-01T09:24:15.416Z,9.71
2023-03-01T09:29:39.907Z,8.99
2023-03-01T09:35:05.110Z,9.96
2023-03-01T09:40:28.548Z,9.70
2023-03-01T09:45:53.464Z,10.06
2023-03-01T09:51:15.304Z,9.49
2023-03-01T09:56:39.909Z,9.69
2023-03-01T10:02:02.270Z,10.36
2023-03-01T10:07:29.975Z,10.56
2023-03-01T10:12:54.499Z,10.43
2023-03-01T10:18:19.821Z,10.46
2023-03-01T10:23:42.180Z,9.72
2023-03-01T10:29:07.336Z,9.74
2023-03-01T10:34:28.428Z,10.74
2023-03-01T10:40:04.921Z,10.11
2023-03-01T10:45:27.458Z,9.89
2023-03-01T10:50:50.257Z,10.06
2023-03-01T10:56:28.472Z,10.45
2023-03-01T11:02:12.086Z,9.92
2023-03-01T11:07:31.226Z,10.28
2023-03-01T11:13:14.825Z,10.23
2023-03-01T11:18:47.666Z,10.17
2023-03-01T11:24:03.604Z,10.44
2023-03-01T11:29:34.756Z,10.03
2023-03-01T11:35:49.005Z,11.64
2023-03-01T11:41:13.839Z,9.71
2023-03-01T11:46:58.236Z,10.81
2023-03-01T11:52:27.466Z,10.17
2023-03-01T11:57:48.352Z,9.75
2023-03-01T12:03:27.206Z,8.84
2023-03-01T12:09:04.661Z,9.43
2023-03-01T12:14:28.253Z,9.40
2023-03-01T12:19:59.338Z,9.73
2023-03-01T12:25:28.206Z,9.70
2023-03-01T12:30:49.157Z,9.67
2023-03-01T12:36:32.915Z,9.92
2023-03-01T12:42:09.467Z,9.04
2023-03-01T12:47:32.128Z,8.62
2023-03-01T12:52:56.330Z,9.87
2023-03-01T12:58:21.805Z,10.24
2023-03-01T13:03:41.732Z,9.32
2023-03-01T13:09:15.545Z,8.35
2023-03-01T13:14:42.200Z,8.33
2023-03-01T13:20:28.279Z,9.40
2023-03-01T13:25:46.906Z,8.63
2023-03-01T13:31:30.514Z,8.22
2023-03-01T13:37:19.133Z,7.99
2023-03-01T13:42:39.430Z,7.34
2023-03-01T13:47:58.604Z,7.44
2023-03-01T13:53:24.421Z,6.91
2023-03-01T13:58:43.619Z,6.62
2023-03-01T14:04:11.923Z,6.42
2023-03-01T14:09:34.792Z,5.93
2023-03-01T14:14:58.266Z,6.18
2023-03-01T14:20:23.418Z,5.76
2023-03-01T14:25:47.720Z,5.84
2023-03-01T14:31:12.197Z,5.90
2023-03-01T14:36:52.766Z,5.91
2023-03-01T14:42:18.220Z,5.69
2023-03-01T14:47:53.877Z,5.58
2023-03-01T14:53:42.716Z,5.88
2023-03-01T14:58:50.648Z,5.33
2023-03-01T15:04:58.288Z,6.09
2023-03-01T15:10:22.709Z,5.02
2023-03-01T15:16:10.745Z,5.65
2023-03-01T15:21:28.241Z,5.18
2023-03-01T15:26:53.048Z,5.39
2023-03-01T15:32:12.857Z,5.72
2023-03-01T15:37:43.539Z,5.39
2023-03-01T15:43:06.409Z,5.21
2023-03-01T15:48:27.079Z,5.40
2023-03-01T15:53:54.478Z,6.76
2023-03-01T15:59:12.676Z,6.45
2023-03-01T16:04:37.435Z,6.21
2023-03-01T16:10:02.639Z,7.42
2023-03-01T16:15:31.870Z,6.01
2023-03-01T16:20:55.833Z,6.61
2023-03-01T16:26:21.608Z,6.63
2023-03-01T16:31:39.540Z,6.42
2023-03-01T16:37:20.382Z,7.11
2023-03-01T16:42:44.659Z,7.41
2023-03-01T16:48:03.779Z,6.77
2023-03-01T16:53:28.329Z,6.71
2023-03-01T16:58:52.275Z,6.35
2023-03-01T17:04:14.964Z,7.53
2023-03-01T17:09:40.096Z,7.27
2023-03-01T17:15:05.495Z,6.96
2023-03-01T17:20:30.397Z,6.95
2023-03-01T17:25:51.539Z,8.07
2023-03-01T17:31:14.138Z,7.43
2023-03-01T17:36:39.366Z,7.07
2023-03-01T17:42:01.554Z,8.20
2023-03-01T17:47:20.062Z,7.91
2023-03-01T17:52:44.720Z,7.09
2023-03-01T17:58:10.186Z,8.60
2023-03-01T18:03:31.362Z,8.63
2023-03-01T18:08:56.018Z,8.15
2023-03-01T18:14:20.520Z,8.95
2023-03-01T18:19:38.664Z,8.72
2023-03-01T18:25:00.870Z,8.62
2023-03-01T18:30:25.937Z,9.38
2023-03-01T18:35:47.163Z,11.14
2023-03-01T18:41:05.566Z,9.03
2023-03-01T18:46:52.967Z,9.19
2023-03-01T18:52:16.992Z,9.01
2023-03-01T18:57:35.793Z,9.49
2023-03-01T19:02:57.243Z,8.95
2023-03-01T19:08:19.650Z,9.50
2023-03-01T19:13:38.545Z,8.93
2023-03-01T19:18:57.320Z,9.58
2023-03-01T19:24:21.681Z,9.46
2023-03-01T19:29:47.155Z,8.76
2023-03-01T19:35:11.440Z,8.96
2023-03-01T19:40:33.195Z,8.36
2023-03-01T19:45:56.113Z,8.07
2023-03-01T19:51:20.143Z,8.44
2023-03-01T19:56:38.638Z,9.67
2023-03-01T20:02:03.743Z,8.75
2023-03-01T20:07:52.554Z,8.66
2023-03-01T20:13:14.041Z,8.77
2023-03-01T20:18:38.655Z,8.08
2023-03-01T20:23:57.490Z,8.71
2023-03-01T20:29:22.866Z,8.89
2023-03-01T20:34:44.714Z,8.14
2023-03-01T20:40:08.814Z,8.66
2023-03-01T20:45:28.710Z,9.27
2023-03-01T20:50:50.801Z,8.47
2023-03-01T20:56:59.372Z,8.54
2023-03-01T21:02:20.702Z,9.07
2023-03-01T21:08:00.802Z,8.92
2023-03-01T21:13:25.270Z,8.80
2023-03-01T21:18:48.051Z,8.92
2023-03-01T21:24:55.362Z,10.07
2023-03-01T21:30:18.571Z,9.01
2023-03-01T21:35:44.174Z,8.94
2023-03-01T21:41:08.795Z,9.26
2023-03-01T21:46:34.414Z,8.73
2023-03-01T21:51:59.124Z,9.64
2023-03-01T21:57:22.076Z,9.33
2023-03-01T22:02:45.830Z,9.44
2023-03-01T22:08:08.059Z,9.42
2023-03-01T22:13:31.624Z,9.45
2023-03-01T22:18:56.586Z,8.98
2023-03-01T22:24:34.593Z,9.07
2023-03-01T22:29:56.310Z,8.90
2023-03-01T22:35:21.066Z,8.77
2023-03-01T22:40:44.973Z,8.46
2023-03-01T22:46:13.393Z,8.89
2023-03-01T22:51:36.532Z,9.27
2023-03-01T22:56:56.293Z,9.67
2023-03-01T23:02:14.670Z,9.37
2023-03-01T23:07:39.795Z,9.51
2023-03-01T23:13:04.939Z,9.05
2023-03-01T23:18:30.340Z,9.99
2023-03-01T23:23:53.981Z,9.31
2023-03-01T23:29:17.089Z,9.79
2023-03-01T23:35:04.618Z,9.58
2023-03-01T23:40:30.500Z,9.25
2023-03-01T23:45:56.796Z,9.94
2023-03-01T23:51:19.567Z,9.40
2023-03-01T23:56:40.520Z,9.06
